Time,TemperatureF,DewpointF,PressureIn,WindDirection,WindDirectionDegrees,WindSpeedMPH,WindSpeedGustMPH,Humidity,HourlyPrecipIn,Conditions,Clouds,dailyrainin,SoftwareType,DateUTC
2013-05-05 00:03:00,44.6,41.0,30.49,South,183,0.0,0.0,88,0.00,,,0.00,weatherlink.com 1.10,2013-05-05 04:03:00,
2013-05-05 00:18:00,44.0,41.0,30.49,South,183,0.0,0.0,90,0.00,,,0.00,weatherlink.com 1.10,2013-05-05 04:18:00,
2013-05-05 00:33:00,43.4,41.0,30.49,South,183,0.0,0.0,91,0.00,,,0.00,weatherlink.com 1.10,2013-05-05 04:33:00,
2013-05-05 00:48:00,42.8,41.0,30.50,South,183,0.0,0.0,92,0.00,,,0.00,weatherlink.com 1.10,2013-05-05 04:48:00,
2013-05-05 01:03:00,42.6,41.0,30.49,South,183,0.0,0.0,93,0.00,,,0.00,weatherlink.com 1.10,2013-05-05 05:03:00,
2013-05-05 01:18:00,42.7,41.0,30.49,South,183,0.0,0.0,94,0.00,,,0.00,weatherlink.com 1.10,2013-05-05 05:18:00,
2013-05-05 01:33:00,42.6,41.0,30.49,South,183,0.0,0.0,94,0.00,,,0.00,weatherlink.com 1.10,2013-05-05 05:33:00,
2013-05-05 01:48:00,42.5,41.0,30.48,South,183,0.0,0.0,94,0.00,,,0.00,weatherlink.com 1.10,2013-05-05 05:48:00,
2013-05-05 02:03:00,42.2,41.0,30.48,South,183,0.0,0.0,94,0.00,,,0.00,weatherlink.com 1.10,2013-05-05 06:03:00,
2013-05-05 02:18:00,41.9,40.0,30.47,South,183,0.0,0.0,94,0.00,,,0.00,weatherlink.com 1.10,2013-05-05 06:18:00,
2013-05-05 02:33:00,41.6,40.0,30.47,South,183,0.0,1.0,94,0.00,,,0.00,weatherlink.com 1.10,2013-05-05 06:33:00,
2013-05-05 02:48:00,41.3,40.0,30.47,South,183,0.0,1.0,94,0.00,,,0.00,weatherlink.com 1.10,2013-05-05 06:48:00,
2013-05-05 03:03:00,40.8,39.0,30.46,South,183,0.0,0.0,94,0.00,,,0.00,weatherlink.com 1.10,2013-05-05 07:03:00,
2013-05-05 03:18:00,40.3,39.0,30.46,South,183,0.0,0.0,95,0.00,,,0.00,weatherlink.com 1.10,2013-05-05 07:18:00,
2013-05-05 03:33:00,39.9,39.0,30.46,South,183,0.0,0.0,95,0.00,,,0.00,weatherlink.com 1.10,2013-05-05 07:33:00,
2013-05-05 03:48:00,39.7,38.0,30.46,South,183,0.0,0.0,95,0.00,,,0.00,weatherlink.com 1.10,2013-05-05 07:48:00,
2013-05-05 04:03:00,39.6,39.0,30.46,South,183,0.0,0.0,96,0.00,,,0.00,weatherlink.com 1.10,2013-05-05 08:03:00,
2013-05-05 04:18:00,39.3,38.0,30.47,South,183,0.0,0.0,96,0.00,,,0.00,weatherlink.com 1.10,2013-05-05 08:18:00,
2013-05-05 04:33:00,39.2,38.0,30.47,South,183,0.0,0.0,96,0.00,,,0.00,weatherlink.com 1.10,2013-05-05 08:33:00,
2013-05-05 04:48:00,38.7,38.0,30.47,South,183,0.0,0.0,96,0.00,,,0.00,weatherlink.com 1.10,2013-05-05 08:48:00,
2013-05-05 05:03:00,38.5,38.0,30.47,South,183,0.0,0.0,96,0.00,,,0.00,weatherlink.com 1.10,2013-05-05 09:03:00,
2013-05-05 05:18:00,38.2,37.0,30.47,South,183,0.0,0.0,96,0.00,,,0.00,weatherlink.com 1.10,2013-05-05 09:18:00,
2013-05-05 05:33:00,38.2,38.0,30.47,South,183,0.0,0.0,97,0.00,,,0.00,weatherlink.com 1.10,2013-05-05 09:33:00,
2013-05-05 05:48:00,37.9,37.0,30.48,South,183,0.0,0.0,96,0.00,,,0.00,weatherlink.com 1.10,2013-05-05 09:48:00,
2013-05-05 06:03:00,37.8,37.0,30.48,South,183,0.0,0.0,97,0.00,,,0.00,weatherlink.com 1.10,2013-05-05 10:03:00,
2013-05-05 06:18:00,37.7,37.0,30.48,South,183,0.0,0.0,97,0.00,,,0.00,weatherlink.com 1.10,2013-05-05 10:18:00,
2013-05-05 06:33:00,38.1,37.0,30.48,South,183,0.0,0.0,97,0.00,,,0.00,weatherlink.com 1.10,2013-05-05 10:33:00,
2013-05-05 06:48:00,38.4,38.0,30.49,South,183,0.0,0.0,97,0.00,,,0.00,weatherlink.com 1.10,2013-05-05 10:48:00,
2013-05-05 07:03:00,39.2,39.0,30.49,South,183,0.0,1.0,98,0.00,,,0.00,weatherlink.com 1.10,2013-05-05 11:03:00,
2013-05-05 07:19:00,40.5,40.0,30.49,NNE,28,1.0,3.0,98,0.00,,,0.00,weatherlink.com 1.10,2013-05-05 11:19:00,
2013-05-05 07:34:00,42.1,42.0,30.50,SSE,163,0.0,2.0,98,0.00,,,0.00,weatherlink.com 1.10,2013-05-05 11:34:00,
2013-05-05 07:49:00,43.6,42.0,30.50,WNW,302,1.0,3.0,93,0.00,,,0.00,weatherlink.com 1.10,2013-05-05 11:49:00,
2013-05-05 08:04:00,45.1,41.0,30.49,NNW,342,2.0,3.0,84,0.00,,,0.00,weatherlink.com 1.10,2013-05-05 12:04:00,
2013-05-05 08:19:00,47.4,41.0,30.50,NW,319,0.0,3.0,79,0.00,,,0.00,weatherlink.com 1.10,2013-05-05 12:19:00,
2013-05-05 08:34:00,49.0,41.0,30.49,SSW,203,3.0,4.0,75,0.00,,,0.00,weatherlink.com 1.10,2013-05-05 12:34:00,
2013-05-05 08:49:00,50.5,41.0,30.49,WNW,285,3.0,4.0,69,0.00,,,0.00,weatherlink.com 1.10,2013-05-05 12:49:00,
2013-05-05 09:04:00,50.3,40.0,30.50,ENE,75,0.0,5.0,69,0.00,,,0.00,weatherlink.com 1.10,2013-05-05 13:04:00,
2013-05-05 09:19:00,52.6,41.0,30.49,NW,319,0.0,5.0,64,0.00,,,0.00,weatherlink.com 1.10,2013-05-05 13:19:00,
2013-05-05 09:34:00,54.6,40.0,30.48,North,5,2.0,3.0,58,0.00,,,0.00,weatherlink.com 1.10,2013-05-05 13:34:00,
2013-05-05 09:49:00,55.4,39.0,30.48,NW,317,2.0,4.0,54,0.00,,,0.00,weatherlink.com 1.10,2013-05-05 13:49:00,
2013-05-05 10:04:00,57.3,40.0,30.48,SSW,203,1.0,4.0,52,0.00,,,0.00,weatherlink.com 1.10,2013-05-05 14:04:00,
2013-05-05 10:19:00,58.3,38.0,30.48,East,86,2.0,4.0,47,0.00,,,0.00,weatherlink.com 1.10,2013-05-05 14:19:00,
2013-05-05 10:34:00,59.4,38.0,30.48,NE,35,2.0,4.0,45,0.00,,,0.00,weatherlink.com 1.10,2013-05-05 14:34:00,
2013-05-05 10:49:00,59.8,37.0,30.47,ESE,105,1.0,5.0,43,0.00,,,0.00,weatherlink.com 1.10,2013-05-05 14:49:00,
2013-05-05 11:04:00,61.4,37.0,30.47,South,190,1.0,4.0,41,0.00,,,0.00,weatherlink.com 1.10,2013-05-05 15:04:00,
2013-05-05 11:19:00,63.7,38.0,30.46,SW,217,0.0,3.0,39,0.00,,,0.00,weatherlink.com 1.10,2013-05-05 15:19:00,
2013-05-05 11:34:00,63.6,38.0,30.46,SW,215,2.0,7.0,39,0.00,,,0.00,weatherlink.com 1.10,2013-05-05 15:34:00,
2013-05-05 11:49:00,64.7,40.0,30.45,SSW,202,0.0,6.0,40,0.00,,,0.00,weatherlink.com 1.10,2013-05-05 15:49:00,
2013-05-05 12:04:00,64.0,38.0,30.45,SE,134,2.0,6.0,38,0.00,,,0.00,weatherlink.com 1.10,2013-05-05 16:04:00,
2013-05-05 12:19:00,63.6,38.0,30.45,NNW,340,3.0,6.0,39,0.00,,,0.00,weatherlink.com 1.10,2013-05-05 16:19:00,
2013-05-05 12:34:00,65.0,37.0,30.44,NE,42,1.0,4.0,36,0.00,,,0.00,weatherlink.com 1.10,2013-05-05 16:34:00,
2013-05-05 12:49:00,66.6,37.0,30.43,SSW,210,4.0,8.0,34,0.00,,,0.00,weatherlink.com 1.10,2013-05-05 16:49:00,
2013-05-05 13:04:00,67.1,38.0,30.43,SSE,155,2.0,5.0,34,0.00,,,0.00,weatherlink.com 1.10,2013-05-05 17:04:00,
2013-05-05 13:19:00,67.7,37.0,30.43,ESE,114,1.0,6.0,33,0.00,,,0.00,weatherlink.com 1.10,2013-05-05 17:19:00,
2013-05-05 13:34:00,67.8,37.0,30.43,SSW,201,1.0,5.0,32,0.00,,,0.00,weatherlink.com 1.10,2013-05-05 17:34:00,
2013-05-05 13:49:00,69.4,37.0,30.42,WNW,298,0.0,5.0,31,0.00,,,0.00,weatherlink.com 1.10,2013-05-05 17:49:00,
2013-05-05 14:04:00,71.0,35.0,30.42,NW,316,1.0,5.0,27,0.00,,,0.00,weatherlink.com 1.10,2013-05-05 18:04:00,
2013-05-05 14:19:00,70.4,35.0,30.41,ESE,116,2.0,5.0,27,0.00,,,0.00,weatherlink.com 1.10,2013-05-05 18:19:00,
2013-05-05 14:34:00,70.2,34.0,30.41,WSW,238,1.0,7.0,26,0.00,,,0.00,weatherlink.com 1.10,2013-05-05 18:34:00,
2013-05-05 14:49:00,70.9,32.0,30.40,SW,222,3.0,11.0,24,0.00,,,0.00,weatherlink.com 1.10,2013-05-05 18:49:00,
2013-05-05 15:04:00,71.7,34.0,30.40,East,96,5.0,7.0,25,0.00,,,0.00,weatherlink.com 1.10,2013-05-05 19:04:00,
2013-05-05 15:19:00,70.0,38.0,30.39,SW,228,3.0,8.0,31,0.00,,,0.00,weatherlink.com 1.10,2013-05-05 19:19:00,
2013-05-05 15:35:00,69.0,40.0,30.39,South,182,4.0,9.0,35,0.00,,,0.00,weatherlink.com 1.10,2013-05-05 19:35:00,
2013-05-05 15:50:00,67.8,40.0,30.39,ESE,119,2.0,7.0,37,0.00,,,0.00,weatherlink.com 1.10,2013-05-05 19:50:00,
2013-05-05 16:05:00,66.5,41.0,30.39,East,79,3.0,11.0,39,0.00,,,0.00,weatherlink.com 1.10,2013-05-05 20:05:00,
2013-05-05 16:20:00,65.9,41.0,30.39,ESE,120,2.0,10.0,41,0.00,,,0.00,weatherlink.com 1.10,2013-05-05 20:20:00,
2013-05-05 16:35:00,66.0,42.0,30.39,SE,130,4.0,7.0,42,0.00,,,0.00,weatherlink.com 1.10,2013-05-05 20:35:00,
2013-05-05 16:50:00,65.6,42.0,30.39,East,80,7.0,10.0,43,0.00,,,0.00,weatherlink.com 1.10,2013-05-05 20:50:00,
2013-05-05 17:05:00,65.6,42.0,30.39,SSE,148,1.0,7.0,43,0.00,,,0.00,weatherlink.com 1.10,2013-05-05 21:05:00,
2013-05-05 17:20:00,64.9,42.0,30.40,South,184,2.0,8.0,44,0.00,,,0.00,weatherlink.com 1.10,2013-05-05 21:20:00,
2013-05-05 17:35:00,64.3,42.0,30.40,SSE,159,5.0,9.0,44,0.00,,,0.00,weatherlink.com 1.10,2013-05-05 21:35:00,
2013-05-05 17:50:00,63.6,42.0,30.39,WSW,250,5.0,7.0,45,0.00,,,0.00,weatherlink.com 1.10,2013-05-05 21:50:00,
2013-05-05 18:05:00,63.0,42.0,30.39,SE,127,2.0,7.0,46,0.00,,,0.00,weatherlink.com 1.10,2013-05-05 22:05:00,
2013-05-05 18:20:00,62.5,42.0,30.39,South,184,2.0,7.0,47,0.00,,,0.00,weatherlink.com 1.10,2013-05-05 22:20:00,
2013-05-05 18:35:00,62.3,42.0,30.39,East,83,0.0,5.0,47,0.00,,,0.00,weatherlink.com 1.10,2013-05-05 22:35:00,
2013-05-05 18:50:00,61.0,41.0,30.40,SSE,148,2.0,6.0,49,0.00,,,0.00,weatherlink.com 1.10,2013-05-05 22:50:00,
2013-05-05 19:05:00,59.8,41.0,30.40,East,90,2.0,7.0,50,0.00,,,0.00,weatherlink.com 1.10,2013-05-05 23:05:00,
2013-05-05 19:20:00,58.3,41.0,30.40,SE,146,0.0,4.0,52,0.00,,,0.00,weatherlink.com 1.10,2013-05-05 23:20:00,
2013-05-05 19:35:00,57.1,40.0,30.41,WNW,286,3.0,5.0,54,0.00,,,0.00,weatherlink.com 1.10,2013-05-05 23:35:00,
2013-05-05 19:50:00,56.3,41.0,30.41,SSW,203,4.0,6.0,57,0.00,,,0.00,weatherlink.com 1.10,2013-05-05 23:50:00,
2013-05-05 20:05:00,55.5,41.0,30.42,East,92,0.0,3.0,59,0.00,,,0.00,weatherlink.com 1.10,2013-05-06 00:05:00,
2013-05-05 20:20:00,54.6,41.0,30.42,WNW,282,0.0,4.0,61,0.00,,,0.00,weatherlink.com 1.10,2013-05-06 00:20:00,
2013-05-05 20:35:00,53.5,41.0,30.43,WNW,282,1.0,3.0,64,0.00,,,0.00,weatherlink.com 1.10,2013-05-06 00:35:00,
2013-05-05 20:50:00,52.3,42.0,30.43,WNW,282,0.0,4.0,67,0.00,,,0.00,weatherlink.com 1.10,2013-05-06 00:50:00,
2013-05-05 21:05:00,51.5,42.0,30.44,WNW,282,0.0,2.0,69,0.00,,,0.00,weatherlink.com 1.10,2013-05-06 01:05:00,
2013-05-05 21:20:00,50.6,41.0,30.44,WNW,282,0.0,1.0,71,0.00,,,0.00,weatherlink.com 1.10,2013-05-06 01:20:00,
2013-05-05 21:35:00,49.8,41.0,30.44,WNW,282,0.0,1.0,73,0.00,,,0.00,weatherlink.com 1.10,2013-05-06 01:35:00,
2013-05-05 21:50:00,49.1,42.0,30.45,West,277,1.0,3.0,76,0.00,,,0.00,weatherlink.com 1.10,2013-05-06 01:50:00,
2013-05-05 22:05:00,48.7,42.0,30.45,West,277,1.0,2.0,78,0.00,,,0.00,weatherlink.com 1.10,2013-05-06 02:05:00,
2013-05-05 22:20:00,48.4,43.0,30.45,WSW,244,1.0,2.0,80,0.00,,,0.00,weatherlink.com 1.10,2013-05-06 02:20:00,
2013-05-05 22:35:00,47.9,42.0,30.45,WSW,242,0.0,3.0,81,0.00,,,0.00,weatherlink.com 1.10,2013-05-06 02:35:00,
2013-05-05 22:50:00,47.2,42.0,30.45,WSW,242,0.0,3.0,82,0.00,,,0.00,weatherlink.com 1.10,2013-05-06 02:50:00,
2013-05-05 23:05:00,46.8,42.0,30.45,WSW,242,0.0,3.0,84,0.00,,,0.00,weatherlink.com 1.10,2013-05-06 03:05:00,
2013-05-05 23:20:00,46.5,42.0,30.45,WSW,242,1.0,2.0,85,0.00,,,0.00,weatherlink.com 1.10,2013-05-06 03:20:00,
2013-05-05 23:35:00,46.1,43.0,30.45,WSW,242,0.0,2.0,87,0.00,,,0.00,weatherlink.com 1.10,2013-05-06 03:35:00,
2013-05-05 23:50:00,45.8,42.0,30.45,WSW,242,0.0,2.0,87,0.00,,,0.00,weatherlink.com 1.10,2013-05-06 03:50:00,